Terminal Aerodrome Forecast
Issued by NWS Charleston, WV

Current Version | Previous Version | Graphics & Text | Print | Product List | Glossary On
Versions: 1 2 3 4 5 6 7 8 9 10 11 12 13 14 15 16 17 18 19 20 21 22 23 24
000
FTUS41 KRLX 300500
TAFPKB
TAF
KPKB 300524Z 3006/0106 00000KT 5SM BR FEW001
     FM300800 00000KT 1/2SM FG VV001
     FM301300 VRB03KT 3SM BR FEW010
     FM301400 00000KT P6SM SCT045
     FM301600 25007KT P6SM BKN045
     FM302100 31005KT 6SM HZ VCSH BKN045
     FM010200 34003KT 6SM HZ BKN020
     FM010500 VRB03KT 5SM BR OVC014=

USA.gov is the U.S. government's official web portal to all federal, state and local government web resources and services.